Saint Thomas, Pennsylvania
Current Conditions -  °F | °C
As of 12:53 PM on Monday 22 Dec 2014 (Local Time) from KHGR Reporting Station
Haze Haze  
Wind Chill: 34°   Ceiling: 3600
Heat Index: 34°   Visibility: 6mi
Dew Point: 25°   Wind: 3mph
Humidity: 70%   Direction: 310°NW
Pressure: 30.2"   Gusts: NA
Location:  39.92°N, 77.8°W
Report Text: KHGR 221753Z 31003KT 6SM HZ OVC036 01/M04 A3020 RMK AO2 SLP245 T00111039 10011 21044 58028
Loading
Personal Weather Stations






























Interactive Weather Map New forecast layout! Learn more

10-Day Weather Forecast

Advertisements
Track Severe Weather on mobile